sensor_id;sensor_type;location;lat;lon;timestamp;pressure;altitude;pressure_sealevel;temperature;humidity
72124;BME280;63818;37.134;-8.548;2023-04-10T00:02:33;101852.4;;;20.4;43.7
72124;BME280;63818;37.134;-8.548;2023-04-10T00:07:19;101855.1;;;20.4;45.8
72124;BME280;63818;37.134;-8.548;2023-04-10T00:12:10;101865.4;;;20.4;47.0
72124;BME280;63818;37.134;-8.548;2023-04-10T00:16:56;101860.6;;;20.4;48.7
72124;BME280;63818;37.134;-8.548;2023-04-10T00:21:46;101859.7;;;20.4;48.5
72124;BME280;63818;37.134;-8.548;2023-04-10T00:26:32;101857.8;;;20.3;47.9
72124;BME280;63818;37.134;-8.548;2023-04-10T00:31:18;101856.2;;;20.3;47.7
72124;BME280;63818;37.134;-8.548;2023-04-10T00:36:07;101859.2;;;20.2;47.9
72124;BME280;63818;37.134;-8.548;2023-04-10T00:40:54;101867.1;;;20.2;49.4
72124;BME280;63818;37.134;-8.548;2023-04-10T00:45:40;101867.4;;;20.2;50.5
72124;BME280;63818;37.134;-8.548;2023-04-10T00:50:29;101871.6;;;20.2;50.8
72124;BME280;63818;37.134;-8.548;2023-04-10T00:55:15;101868.0;;;20.1;52.0
72124;BME280;63818;37.134;-8.548;2023-04-10T01:00:01;101871.1;;;20.1;52.4
72124;BME280;63818;37.134;-8.548;2023-04-10T01:04:47;101869.8;;;20.1;52.9
72124;BME280;63818;37.134;-8.548;2023-04-10T01:09:40;101865.5;;;20.1;53.6
72124;BME280;63818;37.134;-8.548;2023-04-10T01:14:32;101857.6;;;20.1;54.2
72124;BME280;63818;37.134;-8.548;2023-04-10T01:19:26;101862.2;;;20.0;54.1
72124;BME280;63818;37.134;-8.548;2023-04-10T01:24:23;101851.5;;;20.0;54.2
72124;BME280;63818;37.134;-8.548;2023-04-10T01:29:17;101851.2;;;20.0;54.5
72124;BME280;63818;37.134;-8.548;2023-04-10T01:34:11;101848.3;;;20.0;54.6
72124;BME280;63818;37.134;-8.548;2023-04-10T01:39:00;101846.3;;;19.9;54.9
72124;BME280;63818;37.134;-8.548;2023-04-10T01:43:49;101838.5;;;19.9;54.4
72124;BME280;63818;37.134;-8.548;2023-04-10T01:48:36;101836.9;;;19.9;54.4
72124;BME280;63818;37.134;-8.548;2023-04-10T01:53:23;101827.8;;;19.9;53.7
72124;BME280;63818;37.134;-8.548;2023-04-10T01:58:09;101832.4;;;19.8;53.9
72124;BME280;63818;37.134;-8.548;2023-04-10T02:03:01;101827.2;;;19.8;53.9
72124;BME280;63818;37.134;-8.548;2023-04-10T02:07:53;101824.8;;;19.8;54.7
72124;BME280;63818;37.134;-8.548;2023-04-10T02:12:50;101827.2;;;19.8;54.9
72124;BME280;63818;37.134;-8.548;2023-04-10T02:17:38;101828.3;;;19.8;55.2
72124;BME280;63818;37.134;-8.548;2023-04-10T02:22:25;101829.6;;;19.7;55.3
72124;BME280;63818;37.134;-8.548;2023-04-10T02:27:18;101820.2;;;19.7;55.3
72124;BME280;63818;37.134;-8.548;2023-04-10T02:32:10;101830.0;;;19.7;55.5
72124;BME280;63818;37.134;-8.548;2023-04-10T02:36:55;101828.4;;;19.7;55.6
72124;BME280;63818;37.134;-8.548;2023-04-10T02:41:43;101817.7;;;19.6;55.7
72124;BME280;63818;37.134;-8.548;2023-04-10T02:46:29;101820.3;;;19.6;55.5
72124;BME280;63818;37.134;-8.548;2023-04-10T02:51:18;101819.9;;;19.6;55.4
72124;BME280;63818;37.134;-8.548;2023-04-10T02:56:05;101813.4;;;19.5;54.8
72124;BME280;63818;37.134;-8.548;2023-04-10T03:00:50;101806.5;;;19.4;51.1
72124;BME280;63818;37.134;-8.548;2023-04-10T03:05:36;101787.7;;;19.4;46.7
72124;BME280;63818;37.134;-8.548;2023-04-10T03:10:22;101783.8;;;19.3;44.7
72124;BME280;63818;37.134;-8.548;2023-04-10T03:15:09;101786.1;;;19.3;43.7
72124;BME280;63818;37.134;-8.548;2023-04-10T03:19:55;101778.1;;;19.2;42.9
72124;BME280;63818;37.134;-8.548;2023-04-10T03:24:41;101785.0;;;19.2;43.2
72124;BME280;63818;37.134;-8.548;2023-04-10T03:29:27;101788.5;;;19.1;43.2
72124;BME280;63818;37.134;-8.548;2023-04-10T03:34:22;101788.4;;;19.1;43.2
72124;BME280;63818;37.134;-8.548;2023-04-10T03:39:08;101790.9;;;19.1;43.6
72124;BME280;63818;37.134;-8.548;2023-04-10T03:43:54;101796.9;;;19.1;43.8
72124;BME280;63818;37.134;-8.548;2023-04-10T03:48:47;101793.6;;;19.2;43.9
72124;BME280;63818;37.134;-8.548;2023-04-10T03:53:33;101781.0;;;19.1;43.4
72124;BME280;63818;37.134;-8.548;2023-04-10T03:58:22;101794.0;;;19.1;43.8
72124;BME280;63818;37.134;-8.548;2023-04-10T04:03:08;101790.7;;;19.0;42.7
72124;BME280;63818;37.134;-8.548;2023-04-10T04:07:59;101800.7;;;19.0;42.6
72124;BME280;63818;37.134;-8.548;2023-04-10T04:12:45;101787.6;;;18.9;42.6
72124;BME280;63818;37.134;-8.548;2023-04-10T04:17:33;101800.8;;;18.9;42.5
72124;BME280;63818;37.134;-8.548;2023-04-10T04:22:19;101797.7;;;18.9;42.3
72124;BME280;63818;37.134;-8.548;2023-04-10T04:27:05;101801.6;;;18.9;42.3
72124;BME280;63818;37.134;-8.548;2023-04-10T04:31:55;101796.0;;;18.9;42.7
72124;BME280;63818;37.134;-8.548;2023-04-10T04:41:32;101801.8;;;18.8;43.3
72124;BME280;63818;37.134;-8.548;2023-04-10T04:46:18;101805.6;;;18.8;43.0
72124;BME280;63818;37.134;-8.548;2023-04-10T04:51:11;101807.6;;;18.8;42.9
72124;BME280;63818;37.134;-8.548;2023-04-10T04:55:57;101811.8;;;18.8;43.0
72124;BME280;63818;37.134;-8.548;2023-04-10T05:00:44;101822.7;;;18.8;43.1
72124;BME280;63818;37.134;-8.548;2023-04-10T05:05:32;101829.8;;;18.7;43.7
72124;BME280;63818;37.134;-8.548;2023-04-10T05:10:21;101836.8;;;18.7;45.2
72124;BME280;63818;37.134;-8.548;2023-04-10T05:15:08;101851.6;;;18.7;46.8
72124;BME280;63818;37.134;-8.548;2023-04-10T05:19:59;101852.4;;;18.6;47.6
72124;BME280;63818;37.134;-8.548;2023-04-10T05:24:45;101855.2;;;18.6;47.4
72124;BME280;63818;37.134;-8.548;2023-04-10T05:29:38;101857.1;;;18.6;45.7
72124;BME280;63818;37.134;-8.548;2023-04-10T05:34:24;101861.3;;;18.6;45.5
72124;BME280;63818;37.134;-8.548;2023-04-10T05:39:12;101870.8;;;18.5;45.1
72124;BME280;63818;37.134;-8.548;2023-04-10T05:44:00;101868.3;;;18.5;45.1
72124;BME280;63818;37.134;-8.548;2023-04-10T05:48:46;101876.2;;;18.5;46.2
72124;BME280;63818;37.134;-8.548;2023-04-10T05:53:37;101886.1;;;18.5;47.1
72124;BME280;63818;37.134;-8.548;2023-04-10T05:58:24;101896.2;;;18.5;48.0
72124;BME280;63818;37.134;-8.548;2023-04-10T06:03:17;101913.7;;;18.5;48.8
72124;BME280;63818;37.134;-8.548;2023-04-10T06:08:02;101911.5;;;18.4;48.0
72124;BME280;63818;37.134;-8.548;2023-04-10T06:12:54;101905.3;;;18.3;46.4
72124;BME280;63818;37.134;-8.548;2023-04-10T06:17:42;101905.3;;;18.3;45.3
72124;BME280;63818;37.134;-8.548;2023-04-10T06:22:29;101912.5;;;18.3;45.5
72124;BME280;63818;37.134;-8.548;2023-04-10T06:27:15;101916.6;;;18.4;45.5
72124;BME280;63818;37.134;-8.548;2023-04-10T06:32:01;101930.7;;;18.4;45.9
72124;BME280;63818;37.134;-8.548;2023-04-10T06:36:47;101922.1;;;18.4;46.0
72124;BME280;63818;37.134;-8.548;2023-04-10T06:41:33;101932.7;;;18.4;46.3
72124;BME280;63818;37.134;-8.548;2023-04-10T06:46:20;101944.8;;;18.4;46.6
72124;BME280;63818;37.134;-8.548;2023-04-10T06:51:06;101957.5;;;18.4;46.6
72124;BME280;63818;37.134;-8.548;2023-04-10T06:55:52;101963.4;;;18.4;46.8
72124;BME280;63818;37.134;-8.548;2023-04-10T07:00:38;101967.5;;;18.4;47.0
72124;BME280;63818;37.134;-8.548;2023-04-10T07:05:24;101976.1;;;18.3;46.5
72124;BME280;63818;37.134;-8.548;2023-04-10T07:10:17;101972.8;;;18.4;47.3
72124;BME280;63818;37.134;-8.548;2023-04-10T07:15:03;101987.0;;;18.5;48.4
72124;BME280;63818;37.134;-8.548;2023-04-10T07:19:51;101994.7;;;18.4;49.3
72124;BME280;63818;37.134;-8.548;2023-04-10T07:24:38;102006.2;;;18.4;49.7
72124;BME280;63818;37.134;-8.548;2023-04-10T07:29:24;102018.3;;;18.4;49.9
72124;BME280;63818;37.134;-8.548;2023-04-10T07:34:13;102031.2;;;18.4;50.3
72124;BME280;63818;37.134;-8.548;2023-04-10T07:39:03;102040.2;;;18.4;50.8
72124;BME280;63818;37.134;-8.548;2023-04-10T07:43:49;102047.0;;;18.5;51.1
72124;BME280;63818;37.134;-8.548;2023-04-10T07:48:38;102041.3;;;18.5;51.3
72124;BME280;63818;37.134;-8.548;2023-04-10T07:53:25;102041.4;;;18.5;51.2
72124;BME280;63818;37.134;-8.548;2023-04-10T07:58:10;102052.1;;;18.6;51.2
72124;BME280;63818;37.134;-8.548;2023-04-10T08:02:56;102056.1;;;18.6;51.1
72124;BME280;63818;37.134;-8.548;2023-04-10T08:07:45;102060.1;;;18.6;50.7
72124;BME280;63818;37.134;-8.548;2023-04-10T08:12:35;102059.6;;;18.7;50.2
72124;BME280;63818;37.134;-8.548;2023-04-10T08:17:26;102071.8;;;18.7;50.0
72124;BME280;63818;37.134;-8.548;2023-04-10T08:22:12;102063.2;;;18.8;50.0
72124;BME280;63818;37.134;-8.548;2023-04-10T08:26:59;102061.9;;;18.9;49.6
72124;BME280;63818;37.134;-8.548;2023-04-10T08:31:45;102052.1;;;19.0;49.0
72124;BME280;63818;37.134;-8.548;2023-04-10T08:36:31;102062.3;;;19.0;48.2
72124;BME280;63818;37.134;-8.548;2023-04-10T08:41:18;102054.3;;;19.0;48.1
72124;BME280;63818;37.134;-8.548;2023-04-10T08:46:07;102073.1;;;19.1;48.0
72124;BME280;63818;37.134;-8.548;2023-04-10T08:50:53;102072.1;;;19.1;48.4
72124;BME280;63818;37.134;-8.548;2023-04-10T08:55:40;102077.3;;;19.1;49.1
72124;BME280;63818;37.134;-8.548;2023-04-10T09:00:27;102082.8;;;19.2;48.4
72124;BME280;63818;37.134;-8.548;2023-04-10T09:05:16;102093.1;;;19.2;48.8
72124;BME280;63818;37.134;-8.548;2023-04-10T09:10:03;102099.5;;;19.3;48.8
72124;BME280;63818;37.134;-8.548;2023-04-10T09:14:51;102104.6;;;19.3;48.0
72124;BME280;63818;37.134;-8.548;2023-04-10T09:19:39;102096.4;;;19.3;47.1
72124;BME280;63818;37.134;-8.548;2023-04-10T09:24:26;102097.2;;;19.3;47.0
72124;BME280;63818;37.134;-8.548;2023-04-10T09:29:13;102107.4;;;19.3;47.0
72124;BME280;63818;37.134;-8.548;2023-04-10T09:34:10;102121.2;;;19.4;47.2
72124;BME280;63818;37.134;-8.548;2023-04-10T09:38:57;102119.7;;;19.4;47.1
72124;BME280;63818;37.134;-8.548;2023-04-10T09:43:43;102125.7;;;19.4;46.8
72124;BME280;63818;37.134;-8.548;2023-04-10T09:48:31;102131.6;;;19.4;46.3
72124;BME280;63818;37.134;-8.548;2023-04-10T09:53:19;102127.7;;;19.4;45.3
72124;BME280;63818;37.134;-8.548;2023-04-10T09:58:06;102125.5;;;19.4;45.1
72124;BME280;63818;37.134;-8.548;2023-04-10T10:02:58;102127.1;;;19.5;44.2
72124;BME280;63818;37.134;-8.548;2023-04-10T10:07:46;102117.8;;;19.5;43.4
72124;BME280;63818;37.134;-8.548;2023-04-10T10:12:35;102115.9;;;19.5;41.7
72124;BME280;63818;37.134;-8.548;2023-04-10T10:17:30;102115.5;;;19.5;40.8
72124;BME280;63818;37.134;-8.548;2023-04-10T10:22:18;102116.0;;;19.5;40.5
72124;BME280;63818;37.134;-8.548;2023-04-10T10:27:10;102121.9;;;19.5;40.1
72124;BME280;63818;37.134;-8.548;2023-04-10T10:31:59;102130.2;;;19.6;40.9
72124;BME280;63818;37.134;-8.548;2023-04-10T10:36:48;102130.4;;;19.6;41.5
72124;BME280;63818;37.134;-8.548;2023-04-10T10:41:39;102119.1;;;19.6;40.7
72124;BME280;63818;37.134;-8.548;2023-04-10T10:46:49;102119.9;;;19.6;40.4
72124;BME280;63818;37.134;-8.548;2023-04-10T10:51:47;102117.6;;;19.6;39.9
72124;BME280;63818;37.134;-8.548;2023-04-10T10:56:34;102116.6;;;19.7;40.7
72124;BME280;63818;37.134;-8.548;2023-04-10T11:01:23;102111.2;;;19.7;40.0
72124;BME280;63818;37.134;-8.548;2023-04-10T11:06:13;102116.0;;;19.7;40.0
72124;BME280;63818;37.134;-8.548;2023-04-10T11:11:01;102111.3;;;19.7;39.3
72124;BME280;63818;37.134;-8.548;2023-04-10T11:15:50;102114.2;;;19.8;40.2
72124;BME280;63818;37.134;-8.548;2023-04-10T11:21:09;102105.3;;;19.8;40.5
72124;BME280;63818;37.134;-8.548;2023-04-10T11:25:56;102099.7;;;19.8;41.4
72124;BME280;63818;37.134;-8.548;2023-04-10T11:30:45;102100.5;;;19.8;41.7
72124;BME280;63818;37.134;-8.548;2023-04-10T11:35:32;102097.0;;;19.9;42.3
72124;BME280;63818;37.134;-8.548;2023-04-10T11:40:18;102090.1;;;19.9;42.4
72124;BME280;63818;37.134;-8.548;2023-04-10T11:45:23;102084.3;;;19.9;42.6
72124;BME280;63818;37.134;-8.548;2023-04-10T11:50:20;102079.3;;;19.9;42.4
72124;BME280;63818;37.134;-8.548;2023-04-10T11:55:06;102067.0;;;20.0;42.6
72124;BME280;63818;37.134;-8.548;2023-04-10T11:59:55;102061.5;;;20.0;42.8
72124;BME280;63818;37.134;-8.548;2023-04-10T12:04:43;102067.9;;;20.0;43.0
72124;BME280;63818;37.134;-8.548;2023-04-10T12:09:30;102062.5;;;20.0;43.8
72124;BME280;63818;37.134;-8.548;2023-04-10T12:14:22;102066.8;;;20.0;44.1
72124;BME280;63818;37.134;-8.548;2023-04-10T12:19:09;102063.8;;;20.1;43.9
72124;BME280;63818;37.134;-8.548;2023-04-10T12:24:01;102061.2;;;20.1;44.1
72124;BME280;63818;37.134;-8.548;2023-04-10T12:28:51;102057.3;;;20.1;44.1
72124;BME280;63818;37.134;-8.548;2023-04-10T12:33:40;102058.9;;;20.1;44.3
72124;BME280;63818;37.134;-8.548;2023-04-10T12:38:39;102052.8;;;20.1;44.2
72124;BME280;63818;37.134;-8.548;2023-04-10T12:43:33;102043.4;;;20.1;44.2
72124;BME280;63818;37.134;-8.548;2023-04-10T12:48:23;102049.0;;;20.2;45.0
72124;BME280;63818;37.134;-8.548;2023-04-10T12:53:09;102040.9;;;20.2;45.0
72124;BME280;63818;37.134;-8.548;2023-04-10T12:57:55;102041.4;;;20.2;45.2
72124;BME280;63818;37.134;-8.548;2023-04-10T13:02:44;102036.1;;;20.3;45.1
72124;BME280;63818;37.134;-8.548;2023-04-10T13:07:34;102029.5;;;20.3;44.8
72124;BME280;63818;37.134;-8.548;2023-04-10T13:12:24;102034.4;;;20.4;45.9
72124;BME280;63818;37.134;-8.548;2023-04-10T13:17:10;102029.4;;;20.4;45.2
72124;BME280;63818;37.134;-8.548;2023-04-10T13:21:58;102011.9;;;20.4;44.2
72124;BME280;63818;37.134;-8.548;2023-04-10T13:26:44;102027.6;;;20.4;44.2
72124;BME280;63818;37.134;-8.548;2023-04-10T13:31:32;102024.8;;;20.4;43.1
72124;BME280;63818;37.134;-8.548;2023-04-10T13:36:21;102007.8;;;20.5;42.1
72124;BME280;63818;37.134;-8.548;2023-04-10T13:41:07;102017.3;;;20.5;42.4
72124;BME280;63818;37.134;-8.548;2023-04-10T13:45:55;102012.1;;;20.6;44.4
72124;BME280;63818;37.134;-8.548;2023-04-10T13:50:41;102006.7;;;20.6;43.7
72124;BME280;63818;37.134;-8.548;2023-04-10T13:55:31;102005.2;;;20.6;42.8
72124;BME280;63818;37.134;-8.548;2023-04-10T14:00:17;101986.6;;;20.7;40.6
72124;BME280;63818;37.134;-8.548;2023-04-10T14:05:03;101987.4;;;20.7;38.5
72124;BME280;63818;37.134;-8.548;2023-04-10T14:09:50;101978.1;;;20.7;38.5
72124;BME280;63818;37.134;-8.548;2023-04-10T14:14:38;101972.5;;;20.8;39.4
72124;BME280;63818;37.134;-8.548;2023-04-10T14:19:28;101975.1;;;20.9;40.2
72124;BME280;63818;37.134;-8.548;2023-04-10T14:24:14;101959.0;;;21.0;40.0
72124;BME280;63818;37.134;-8.548;2023-04-10T14:29:00;101961.1;;;21.0;40.0
72124;BME280;63818;37.134;-8.548;2023-04-10T14:33:48;101964.4;;;21.1;40.5
72124;BME280;63818;37.134;-8.548;2023-04-10T14:38:35;101953.2;;;21.1;40.4
72124;BME280;63818;37.134;-8.548;2023-04-10T14:43:23;101956.2;;;21.2;41.9
72124;BME280;63818;37.134;-8.548;2023-04-10T14:48:14;101962.7;;;21.3;45.4
72124;BME280;63818;37.134;-8.548;2023-04-10T14:53:00;101964.9;;;21.4;48.1
72124;BME280;63818;37.134;-8.548;2023-04-10T14:57:46;101966.2;;;21.5;50.7
72124;BME280;63818;37.134;-8.548;2023-04-10T15:02:32;101974.2;;;21.5;52.4
72124;BME280;63818;37.134;-8.548;2023-04-10T15:07:23;101956.0;;;21.6;53.0
72124;BME280;63818;37.134;-8.548;2023-04-10T15:12:10;101949.2;;;21.7;52.4
72124;BME280;63818;37.134;-8.548;2023-04-10T15:17:01;101961.7;;;22.0;52.1
72124;BME280;63818;37.134;-8.548;2023-04-10T15:21:47;101939.9;;;22.2;50.2
72124;BME280;63818;37.134;-8.548;2023-04-10T15:26:35;101945.4;;;22.4;49.6
72124;BME280;63818;37.134;-8.548;2023-04-10T15:31:22;101951.8;;;22.6;48.3
72124;BME280;63818;37.134;-8.548;2023-04-10T15:36:09;101948.1;;;22.7;47.9
72124;BME280;63818;37.134;-8.548;2023-04-10T15:40:58;101926.4;;;22.8;48.3
72124;BME280;63818;37.134;-8.548;2023-04-10T15:45:47;101925.1;;;23.1;46.8
72124;BME280;63818;37.134;-8.548;2023-04-10T15:50:37;101926.5;;;23.5;45.4
72124;BME280;63818;37.134;-8.548;2023-04-10T15:55:23;101920.7;;;23.7;45.2
72124;BME280;63818;37.134;-8.548;2023-04-10T16:05:05;101945.8;;;24.0;45.1
72124;BME280;63818;37.134;-8.548;2023-04-10T16:09:51;101926.0;;;24.1;44.6
72124;BME280;63818;37.134;-8.548;2023-04-10T16:14:37;101931.9;;;24.1;44.7
72124;BME280;63818;37.134;-8.548;2023-04-10T16:19:30;101943.3;;;24.1;44.8
72124;BME280;63818;37.134;-8.548;2023-04-10T16:24:16;101937.1;;;24.2;44.7
72124;BME280;63818;37.134;-8.548;2023-04-10T16:29:10;101940.5;;;24.1;45.0
72124;BME280;63818;37.134;-8.548;2023-04-10T16:33:56;101935.8;;;24.1;45.3
72124;BME280;63818;37.134;-8.548;2023-04-10T16:38:45;101935.3;;;24.0;45.4
72124;BME280;63818;37.134;-8.548;2023-04-10T16:43:31;101943.1;;;24.0;45.5
72124;BME280;63818;37.134;-8.548;2023-04-10T16:48:24;101931.7;;;24.0;45.7
72124;BME280;63818;37.134;-8.548;2023-04-10T16:53:11;101936.0;;;24.0;46.2
72124;BME280;63818;37.134;-8.548;2023-04-10T16:57:59;101928.5;;;23.9;46.1
72124;BME280;63818;37.134;-8.548;2023-04-10T17:02:45;101933.7;;;23.8;46.1
72124;BME280;63818;37.134;-8.548;2023-04-10T17:07:36;101944.2;;;23.7;46.0
72124;BME280;63818;37.134;-8.548;2023-04-10T17:12:25;101954.0;;;23.7;45.1
72124;BME280;63818;37.134;-8.548;2023-04-10T17:17:11;101938.7;;;23.7;43.2
72124;BME280;63818;37.134;-8.548;2023-04-10T17:21:58;101943.0;;;23.7;44.3
72124;BME280;63818;37.134;-8.548;2023-04-10T17:26:45;101935.2;;;23.7;43.1
72124;BME280;63818;37.134;-8.548;2023-04-10T17:31:32;101967.2;;;23.6;42.6
72124;BME280;63818;37.134;-8.548;2023-04-10T17:36:19;101954.5;;;23.5;42.1
72124;BME280;63818;37.134;-8.548;2023-04-10T17:41:06;101956.3;;;23.5;43.0
72124;BME280;63818;37.134;-8.548;2023-04-10T17:45:52;101951.4;;;23.4;42.8
72124;BME280;63818;37.134;-8.548;2023-04-10T17:50:38;101959.9;;;23.3;43.9
72124;BME280;63818;37.134;-8.548;2023-04-10T17:55:25;101976.9;;;23.2;44.5
72124;BME280;63818;37.134;-8.548;2023-04-10T18:00:11;101964.6;;;23.1;45.3
72124;BME280;63818;37.134;-8.548;2023-04-10T18:04:58;101967.2;;;23.0;46.2
72124;BME280;63818;37.134;-8.548;2023-04-10T18:09:44;101985.8;;;22.9;47.2
72124;BME280;63818;37.134;-8.548;2023-04-10T18:14:30;101993.8;;;22.8;47.7
72124;BME280;63818;37.134;-8.548;2023-04-10T18:19:17;101983.1;;;22.7;48.0
72124;BME280;63818;37.134;-8.548;2023-04-10T18:24:03;102010.6;;;22.6;48.9
72124;BME280;63818;37.134;-8.548;2023-04-10T18:28:49;102006.0;;;22.5;49.6
72124;BME280;63818;37.134;-8.548;2023-04-10T18:33:35;102007.0;;;22.4;50.1
72124;BME280;63818;37.134;-8.548;2023-04-10T18:38:22;102002.0;;;22.3;50.7
72124;BME280;63818;37.134;-8.548;2023-04-10T18:43:08;102004.9;;;22.2;51.1
72124;BME280;63818;37.134;-8.548;2023-04-10T18:47:54;102013.3;;;22.1;51.6
72124;BME280;63818;37.134;-8.548;2023-04-10T18:52:43;102015.4;;;22.0;52.2
72124;BME280;63818;37.134;-8.548;2023-04-10T18:57:30;102015.2;;;22.0;52.5
72124;BME280;63818;37.134;-8.548;2023-04-10T19:02:16;102022.7;;;21.8;53.0
72124;BME280;63818;37.134;-8.548;2023-04-10T19:07:03;102031.5;;;21.8;53.2
72124;BME280;63818;37.134;-8.548;2023-04-10T19:11:49;102041.7;;;21.6;53.7
72124;BME280;63818;37.134;-8.548;2023-04-10T19:16:35;102049.8;;;21.6;53.8
72124;BME280;63818;37.134;-8.548;2023-04-10T19:21:21;102043.7;;;21.5;53.9
72124;BME280;63818;37.134;-8.548;2023-04-10T19:26:07;102054.2;;;21.5;54.1
72124;BME280;63818;37.134;-8.548;2023-04-10T19:30:56;102058.7;;;21.4;54.4
72124;BME280;63818;37.134;-8.548;2023-04-10T19:35:42;102065.7;;;21.4;54.7
72124;BME280;63818;37.134;-8.548;2023-04-10T19:40:29;102059.4;;;21.4;54.8
72124;BME280;63818;37.134;-8.548;2023-04-10T19:45:16;102064.1;;;21.4;54.8
72124;BME280;63818;37.134;-8.548;2023-04-10T19:50:02;102061.6;;;21.3;55.0
72124;BME280;63818;37.134;-8.548;2023-04-10T19:54:48;102063.0;;;21.3;54.8
72124;BME280;63818;37.134;-8.548;2023-04-10T19:59:37;102073.0;;;21.2;54.9
72124;BME280;63818;37.134;-8.548;2023-04-10T20:04:23;102081.1;;;21.2;55.1
72124;BME280;63818;37.134;-8.548;2023-04-10T20:09:12;102098.8;;;21.1;55.5
72124;BME280;63818;37.134;-8.548;2023-04-10T20:13:59;102111.7;;;21.1;55.3
72124;BME280;63818;37.134;-8.548;2023-04-10T20:18:45;102100.8;;;21.1;55.5
72124;BME280;63818;37.134;-8.548;2023-04-10T20:23:32;102114.0;;;21.1;55.5
72124;BME280;63818;37.134;-8.548;2023-04-10T20:28:20;102113.9;;;21.1;55.9
72124;BME280;63818;37.134;-8.548;2023-04-10T20:33:09;102116.1;;;21.0;55.9
72124;BME280;63818;37.134;-8.548;2023-04-10T20:37:55;102126.2;;;21.0;55.9
72124;BME280;63818;37.134;-8.548;2023-04-10T20:42:43;102124.0;;;20.9;56.1
72124;BME280;63818;37.134;-8.548;2023-04-10T20:47:29;102135.7;;;20.9;56.6
72124;BME280;63818;37.134;-8.548;2023-04-10T20:52:16;102141.7;;;20.9;56.5
72124;BME280;63818;37.134;-8.548;2023-04-10T20:57:02;102146.0;;;20.7;57.0
72124;BME280;63818;37.134;-8.548;2023-04-10T21:01:48;102157.8;;;20.6;57.1
72124;BME280;63818;37.134;-8.548;2023-04-10T21:06:37;102156.5;;;20.6;57.1
72124;BME280;63818;37.134;-8.548;2023-04-10T21:11:24;102158.3;;;20.5;57.5
72124;BME280;63818;37.134;-8.548;2023-04-10T21:16:11;102165.2;;;20.5;57.7
72124;BME280;63818;37.134;-8.548;2023-04-10T21:20:59;102164.8;;;20.5;57.9
72124;BME280;63818;37.134;-8.548;2023-04-10T21:25:49;102163.1;;;20.5;57.9
72124;BME280;63818;37.134;-8.548;2023-04-10T21:30:36;102162.9;;;20.4;57.9
72124;BME280;63818;37.134;-8.548;2023-04-10T21:35:22;102162.1;;;20.4;58.3
72124;BME280;63818;37.134;-8.548;2023-04-10T21:40:09;102170.9;;;20.4;58.3
72124;BME280;63818;37.134;-8.548;2023-04-10T21:44:56;102159.2;;;20.4;58.3
72124;BME280;63818;37.134;-8.548;2023-04-10T21:49:43;102161.4;;;20.3;58.7
72124;BME280;63818;37.134;-8.548;2023-04-10T21:54:31;102160.7;;;20.2;58.8
72124;BME280;63818;37.134;-8.548;2023-04-10T21:59:17;102153.5;;;20.2;59.0
72124;BME280;63818;37.134;-8.548;2023-04-10T22:04:04;102155.7;;;20.1;59.3
72124;BME280;63818;37.134;-8.548;2023-04-10T22:08:50;102159.2;;;20.1;59.3
72124;BME280;63818;37.134;-8.548;2023-04-10T22:13:36;102168.6;;;20.2;59.6
72124;BME280;63818;37.134;-8.548;2023-04-10T22:18:22;102156.3;;;20.2;59.3
72124;BME280;63818;37.134;-8.548;2023-04-10T22:23:08;102151.1;;;20.2;59.3
72124;BME280;63818;37.134;-8.548;2023-04-10T22:27:54;102161.2;;;20.2;59.3
72124;BME280;63818;37.134;-8.548;2023-04-10T22:32:42;102159.4;;;20.1;59.5
72124;BME280;63818;37.134;-8.548;2023-04-10T22:37:29;102161.0;;;20.1;59.6
72124;BME280;63818;37.134;-8.548;2023-04-10T22:42:15;102154.3;;;20.1;59.7
72124;BME280;63818;37.134;-8.548;2023-04-10T22:47:01;102147.9;;;20.0;59.9
72124;BME280;63818;37.134;-8.548;2023-04-10T22:51:47;102156.4;;;20.0;60.0
72124;BME280;63818;37.134;-8.548;2023-04-10T22:56:33;102156.6;;;20.0;60.3
72124;BME280;63818;37.134;-8.548;2023-04-10T23:01:20;102154.4;;;19.9;60.3
72124;BME280;63818;37.134;-8.548;2023-04-10T23:06:06;102147.7;;;19.9;60.4
72124;BME280;63818;37.134;-8.548;2023-04-10T23:10:53;102144.5;;;19.9;60.6
72124;BME280;63818;37.134;-8.548;2023-04-10T23:15:39;102145.7;;;19.9;60.5
72124;BME280;63818;37.134;-8.548;2023-04-10T23:20:25;102142.3;;;19.9;60.9
72124;BME280;63818;37.134;-8.548;2023-04-10T23:25:14;102136.8;;;19.9;60.7
72124;BME280;63818;37.134;-8.548;2023-04-10T23:30:00;102143.4;;;19.9;60.8
72124;BME280;63818;37.134;-8.548;2023-04-10T23:34:46;102140.0;;;19.9;60.7
72124;BME280;63818;37.134;-8.548;2023-04-10T23:39:32;102143.4;;;19.9;60.4
72124;BME280;63818;37.134;-8.548;2023-04-10T23:44:19;102138.3;;;19.9;60.6
72124;BME280;63818;37.134;-8.548;2023-04-10T23:49:05;102131.9;;;19.8;60.4
72124;BME280;63818;37.134;-8.548;2023-04-10T23:53:51;102133.0;;;19.8;60.6
72124;BME280;63818;37.134;-8.548;2023-04-10T23:58:37;102133.0;;;19.8;60.8
